createdAt,value
2018-09-03T00:01:39.770Z,2.80
2018-09-03T00:04:08.735Z,2.57
2018-09-03T00:06:37.545Z,2.77
2018-09-03T00:09:08.614Z,2.40
2018-09-03T00:11:37.589Z,2.30
2018-09-03T00:14:06.815Z,2.83
2018-09-03T00:16:35.658Z,2.83
2018-09-03T00:19:04.583Z,2.50
2018-09-03T00:21:33.387Z,2.30
2018-09-03T00:24:02.178Z,2.60
2018-09-03T00:26:31.147Z,2.80
2018-09-03T00:28:59.995Z,2.80
2018-09-03T00:31:33.943Z,2.50
2018-09-03T00:34:07.971Z,2.67
2018-09-03T00:36:41.999Z,2.10
2018-09-03T00:39:16.150Z,2.53
2018-09-03T00:41:50.155Z,2.90
2018-09-03T00:44:24.139Z,2.20
2018-09-03T00:47:00.631Z,2.30
2018-09-03T00:49:31.086Z,2.13
2018-09-03T00:52:00.049Z,2.23
2018-09-03T00:54:28.956Z,2.50
2018-09-03T00:56:57.807Z,1.93
2018-09-03T00:59:26.819Z,2.20
2018-09-03T01:01:55.635Z,2.33
2018-09-03T01:04:24.475Z,2.43
2018-09-03T01:06:53.425Z,2.30
2018-09-03T01:09:22.275Z,2.27
2018-09-03T01:11:51.551Z,1.87
2018-09-03T01:14:20.523Z,1.93
2018-09-03T01:16:49.355Z,2.47
2018-09-03T01:19:18.477Z,2.20
2018-09-03T01:21:47.447Z,2.20
2018-09-03T01:24:16.256Z,2.50
2018-09-03T01:26:45.072Z,3.30
2018-09-03T01:29:14.066Z,2.63
2018-09-03T01:31:42.867Z,2.13
2018-09-03T01:34:11.758Z,2.70
2018-09-03T01:36:40.665Z,2.10
2018-09-03T01:39:09.679Z,2.00
2018-09-03T01:41:38.499Z,2.10
2018-09-03T01:44:08.099Z,2.30
2018-09-03T01:46:36.891Z,2.47
2018-09-03T01:49:05.670Z,2.63
2018-09-03T01:51:35.401Z,2.40
2018-09-03T01:54:04.248Z,2.90
2018-09-03T01:56:33.083Z,2.27
2018-09-03T01:59:02.039Z,2.73
2018-09-03T02:01:30.819Z,3.20
2018-09-03T02:03:59.695Z,2.60
2018-09-03T02:06:28.564Z,3.60
2018-09-03T02:08:57.380Z,2.60
2018-09-03T02:11:26.222Z,2.63
2018-09-03T02:13:55.227Z,2.63
2018-09-03T02:16:24.208Z,2.97
2018-09-03T02:18:53.055Z,2.60
2018-09-03T02:21:22.143Z,2.40
2018-09-03T02:23:51.307Z,2.80
2018-09-03T02:26:20.110Z,2.63
2018-09-03T02:28:49.064Z,2.57
2018-09-03T02:31:17.862Z,2.10
2018-09-03T02:33:46.679Z,2.60
2018-09-03T02:36:15.990Z,2.20
2018-09-03T02:38:44.827Z,2.50
2018-09-03T02:41:13.728Z,2.10
2018-09-03T02:43:42.694Z,1.90
2018-09-03T02:46:11.907Z,2.43
2018-09-03T02:48:40.723Z,2.57
2018-09-03T02:51:09.679Z,2.30
2018-09-03T02:53:38.503Z,2.20
2018-09-03T02:56:07.334Z,2.23
2018-09-03T02:58:36.272Z,2.60
2018-09-03T03:01:05.175Z,2.60
2018-09-03T03:03:34.124Z,2.70
2018-09-03T03:06:03.083Z,2.20
2018-09-03T03:08:31.897Z,2.17
2018-09-03T03:11:00.735Z,2.40
2018-09-03T03:13:29.796Z,2.57
2018-09-03T03:15:58.614Z,2.30
2018-09-03T03:18:27.510Z,2.30
2018-09-03T03:20:56.439Z,2.83
2018-09-03T03:23:25.295Z,2.93
2018-09-03T03:25:54.151Z,2.87
2018-09-03T03:28:23.075Z,3.97
2018-09-03T03:30:51.891Z,3.27
2018-09-03T03:33:20.701Z,2.43
2018-09-03T03:35:50.287Z,2.93
2018-09-03T03:38:19.094Z,2.27
2018-09-03T03:40:47.922Z,2.97
2018-09-03T03:43:16.962Z,2.97
2018-09-03T03:45:45.791Z,3.90
2018-09-03T03:48:14.724Z,3.80
2018-09-03T03:50:43.721Z,5.77
2018-09-03T03:53:12.762Z,6.20
2018-09-03T03:55:41.570Z,4.70
2018-09-03T03:58:10.502Z,4.13
2018-09-03T04:00:39.359Z,3.73
2018-09-03T04:03:08.174Z,3.47
2018-09-03T04:05:37.131Z,3.37
2018-09-03T04:08:06.222Z,3.20
2018-09-03T04:10:35.164Z,2.90
2018-09-03T04:13:04.947Z,4.00
2018-09-03T04:15:35.131Z,4.10
2018-09-03T04:18:04.432Z,3.23
2018-09-03T04:20:33.485Z,3.40
2018-09-03T04:23:02.836Z,3.97
2018-09-03T04:25:31.544Z,4.90
2018-09-03T04:28:00.518Z,4.87
2018-09-03T04:30:29.425Z,5.00
2018-09-03T04:32:58.232Z,6.30
2018-09-03T04:35:27.156Z,4.40
2018-09-03T04:37:56.074Z,4.20
2018-09-03T04:40:24.970Z,4.50
2018-09-03T04:42:54.250Z,4.63
2018-09-03T04:45:23.092Z,4.60
2018-09-03T04:47:51.963Z,5.37
2018-09-03T04:50:21.046Z,6.53
2018-09-03T04:52:49.864Z,6.40
2018-09-03T04:55:18.798Z,5.77
2018-09-03T04:57:48.299Z,8.97
2018-09-03T05:00:17.147Z,7.00
2018-09-03T05:02:45.997Z,5.43
2018-09-03T05:05:15.019Z,8.17
2018-09-03T05:07:43.856Z,7.03
2018-09-03T05:10:12.958Z,6.73
2018-09-03T05:12:41.973Z,7.60
2018-09-03T05:15:10.867Z,6.07
2018-09-03T05:17:39.727Z,8.97
2018-09-03T05:20:08.626Z,9.25
2018-09-03T05:22:37.812Z,7.67
2018-09-03T05:25:06.894Z,6.37
2018-09-03T05:27:35.858Z,5.90
2018-09-03T05:30:04.893Z,6.67
2018-09-03T05:32:33.713Z,6.07
2018-09-03T05:35:03.199Z,6.60
2018-09-03T05:37:31.992Z,6.13
2018-09-03T05:40:00.787Z,5.37
2018-09-03T05:42:29.969Z,5.77
2018-09-03T05:44:58.775Z,6.60
2018-09-03T05:47:27.562Z,6.60
2018-09-03T05:49:56.476Z,6.47
2018-09-03T05:52:25.415Z,5.90
2018-09-03T05:54:54.615Z,5.97
2018-09-03T05:57:23.496Z,5.80
2018-09-03T05:59:52.363Z,6.37
2018-09-03T06:02:21.171Z,6.07
2018-09-03T06:04:50.575Z,6.00
2018-09-03T06:07:19.748Z,5.87
2018-09-03T06:09:48.571Z,5.60
2018-09-03T06:12:17.551Z,5.20
2018-09-03T06:14:46.400Z,5.97
2018-09-03T06:17:15.235Z,5.93
2018-09-03T06:19:44.263Z,5.30
2018-09-03T06:22:13.124Z,5.80
2018-09-03T06:24:41.927Z,5.67
2018-09-03T06:27:11.141Z,5.60
2018-09-03T06:29:39.954Z,5.60
2018-09-03T06:32:08.783Z,5.83
2018-09-03T06:34:37.802Z,5.80
2018-09-03T06:37:07.039Z,5.20
2018-09-03T06:39:35.828Z,5.30
2018-09-03T06:42:04.927Z,5.57
2018-09-03T06:44:33.922Z,5.27
2018-09-03T06:47:03.110Z,5.40
2018-09-03T06:49:32.314Z,5.90
2018-09-03T06:52:01.139Z,5.57
2018-09-03T06:54:30.103Z,5.40
2018-09-03T06:56:59.295Z,5.37
2018-09-03T06:59:28.114Z,5.80
2018-09-03T07:01:57.000Z,5.67
2018-09-03T07:04:25.985Z,6.30
2018-09-03T07:06:54.815Z,5.67
2018-09-03T07:09:23.654Z,5.20
2018-09-03T07:11:52.974Z,5.50
2018-09-03T07:14:21.791Z,5.10
2018-09-03T07:16:50.706Z,5.40
2018-09-03T07:19:19.931Z,5.17
2018-09-03T07:21:48.752Z,4.80
2018-09-03T07:24:17.584Z,4.80
2018-09-03T07:26:46.544Z,4.87
2018-09-03T07:29:15.395Z,4.90
2018-09-03T07:31:44.320Z,4.67
2018-09-03T07:34:13.340Z,4.30
2018-09-03T07:36:42.170Z,4.90
2018-09-03T07:39:10.988Z,4.60
2018-09-03T07:41:39.952Z,5.23
2018-09-03T07:44:08.827Z,5.17
2018-09-03T07:46:37.631Z,4.73
2018-09-03T07:49:07.227Z,4.60
2018-09-03T07:51:36.072Z,4.43
2018-09-03T07:54:04.986Z,4.43
2018-09-03T07:56:34.463Z,4.63
2018-09-03T07:59:03.303Z,4.53
2018-09-03T08:01:32.125Z,4.20
2018-09-03T08:04:01.090Z,4.13
2018-09-03T08:06:30.040Z,4.40
2018-09-03T08:08:58.926Z,4.13
2018-09-03T08:11:28.155Z,4.30
2018-09-03T08:13:57.004Z,4.30
2018-09-03T08:16:25.904Z,4.27
2018-09-03T08:18:55.204Z,4.17
2018-09-03T08:21:24.039Z,4.33
2018-09-03T08:23:53.356Z,4.20
2018-09-03T08:26:22.731Z,4.23
2018-09-03T08:28:51.583Z,4.20
2018-09-03T08:31:20.448Z,3.80
2018-09-03T08:33:49.719Z,4.00
2018-09-03T08:36:18.552Z,3.73
2018-09-03T08:38:47.408Z,3.30
2018-09-03T08:41:16.448Z,3.57
2018-09-03T08:43:45.292Z,3.07
2018-09-03T08:46:14.123Z,3.20
2018-09-03T08:48:43.016Z,3.57
2018-09-03T08:51:11.835Z,3.00
2018-09-03T08:53:40.691Z,2.80
2018-09-03T08:56:10.091Z,3.00
2018-09-03T08:58:39.824Z,3.00
2018-09-03T09:01:08.687Z,2.80
2018-09-03T09:03:42.846Z,2.60
2018-09-03T09:06:13.567Z,2.00
2018-09-03T09:08:42.555Z,2.13
2018-09-03T09:11:11.371Z,2.13
2018-09-03T09:13:40.311Z,2.10
2018-09-03T09:16:09.427Z,2.20
2018-09-03T09:18:38.369Z,2.00
2018-09-03T09:21:07.260Z,1.90
2018-09-03T09:23:36.324Z,1.80
2018-09-03T09:26:05.195Z,1.70
2018-09-03T09:28:34.031Z,1.50
2018-09-03T09:31:03.096Z,1.80
2018-09-03T09:33:31.918Z,1.80
2018-09-03T09:36:00.727Z,1.60
2018-09-03T09:38:29.989Z,1.90
2018-09-03T09:40:58.843Z,1.80
2018-09-03T09:43:27.682Z,1.70
2018-09-03T09:45:56.631Z,1.80
2018-09-03T09:48:25.899Z,2.23
2018-09-03T09:50:54.736Z,1.57
2018-09-03T09:53:23.715Z,1.80
2018-09-03T09:55:52.551Z,1.50
2018-09-03T09:58:21.383Z,1.63
2018-09-03T10:00:55.456Z,1.67
2018-09-03T10:03:24.391Z,1.37
2018-09-03T10:05:53.210Z,1.67
2018-09-03T10:08:22.024Z,2.00
2018-09-03T10:10:51.055Z,1.40
2018-09-03T10:13:19.872Z,1.47
2018-09-03T10:15:48.693Z,1.43
2018-09-03T10:18:17.836Z,1.60
2018-09-03T10:20:46.788Z,1.60
2018-09-03T10:23:15.695Z,1.57
2018-09-03T10:25:44.699Z,1.30
2018-09-03T10:30:48.010Z,1.40
2018-09-03T10:33:16.915Z,1.30
2018-09-03T10:35:45.956Z,1.60
2018-09-03T10:38:14.911Z,1.53
2018-09-03T10:40:43.752Z,1.47
2018-09-03T10:43:12.591Z,1.50
2018-09-03T10:45:46.261Z,1.47
2018-09-03T10:48:16.519Z,1.50
2018-09-03T10:50:45.788Z,2.00
2018-09-03T10:53:14.617Z,1.30
2018-09-03T10:55:43.503Z,1.60
2018-09-03T10:58:12.660Z,1.20
2018-09-03T11:00:41.713Z,1.50
2018-09-03T11:03:10.711Z,1.70
2018-09-03T11:05:41.008Z,1.57
2018-09-03T11:08:09.841Z,1.50
2018-09-03T11:10:38.683Z,1.90
2018-09-03T11:13:07.982Z,1.70
2018-09-03T11:15:37.201Z,1.80
2018-09-03T11:18:06.265Z,1.40
2018-09-03T11:20:35.477Z,1.57
2018-09-03T11:23:04.526Z,1.60
2018-09-03T11:59:59.622Z,1.03
2018-09-03T12:02:31.277Z,1.00
2018-09-03T12:05:01.802Z,1.07
2018-09-03T12:07:32.113Z,0.70
2018-09-03T12:10:02.284Z,0.90
2018-09-03T12:12:31.399Z,1.00
2018-09-03T12:15:03.732Z,1.00
2018-09-03T12:17:32.709Z,0.90
2018-09-03T12:20:01.777Z,0.70
2018-09-03T12:22:30.647Z,0.90
2018-09-03T12:24:59.999Z,0.70
2018-09-03T12:27:28.803Z,0.87
2018-09-03T12:29:57.628Z,0.63
2018-09-03T12:32:26.574Z,0.70
2018-09-03T12:34:55.386Z,0.80
2018-09-03T12:37:24.227Z,0.87
2018-09-03T12:39:53.335Z,0.70
2018-09-03T12:42:22.239Z,0.73
2018-09-03T12:44:51.091Z,0.80
2018-09-03T12:47:20.297Z,0.70
2018-09-03T12:49:49.149Z,0.93
2018-09-03T12:52:18.003Z,0.70
2018-09-03T12:54:46.948Z,0.90
2018-09-03T12:57:15.796Z,0.80
2018-09-03T12:59:44.598Z,0.70
2018-09-03T13:02:13.643Z,1.63
2018-09-03T13:04:42.474Z,1.57
2018-09-03T13:07:11.375Z,1.47
2018-09-03T13:09:40.426Z,1.50
2018-09-03T13:12:09.858Z,1.60
2018-09-03T13:14:38.911Z,1.60
2018-09-03T13:17:07.767Z,1.60
2018-09-03T13:19:36.620Z,1.40
2018-09-03T13:22:05.632Z,1.40
2018-09-03T13:24:34.474Z,1.60
2018-09-03T13:27:03.444Z,1.80
2018-09-03T13:29:32.456Z,1.57
2018-09-03T13:32:01.367Z,1.67
2018-09-03T13:34:30.403Z,1.77
2018-09-03T13:36:59.295Z,1.70
2018-09-03T13:39:28.276Z,1.57
2018-09-03T13:41:57.107Z,1.27
2018-09-03T13:44:25.937Z,1.70
2018-09-03T13:46:54.967Z,1.63
2018-09-03T13:49:23.820Z,1.50
2018-09-03T13:51:52.675Z,1.53
2018-09-03T13:54:21.503Z,1.70
2018-09-03T13:56:50.413Z,1.53
2018-09-03T13:59:19.254Z,1.60
2018-09-03T14:01:48.116Z,1.73
2018-09-03T14:04:16.934Z,1.80
2018-09-03T14:06:45.792Z,2.17
2018-09-03T14:09:14.611Z,2.40
2018-09-03T14:11:43.563Z,2.70
2018-09-03T14:14:12.427Z,2.53
2018-09-03T14:16:41.387Z,2.47
2018-09-03T14:19:10.251Z,2.13
2018-09-03T14:21:39.131Z,2.10
2018-09-03T14:24:08.391Z,2.27
2018-09-03T14:26:37.229Z,2.43
2018-09-03T14:29:06.071Z,2.37
2018-09-03T14:31:34.891Z,2.50
2018-09-03T14:34:03.731Z,2.40
2018-09-03T14:36:32.582Z,2.03
2018-09-03T14:39:01.440Z,1.90
2018-09-03T14:41:30.254Z,1.83
2018-09-03T14:43:59.094Z,1.80
2018-09-03T14:46:27.930Z,2.10
2018-09-03T14:48:56.930Z,1.90
2018-09-03T14:51:26.291Z,1.87
2018-09-03T14:53:59.643Z,2.30
2018-09-03T14:56:29.176Z,2.20
2018-09-03T15:22:47.925Z,2.23
2018-09-03T15:25:16.735Z,1.97
2018-09-03T15:27:45.552Z,2.27
2018-09-03T15:30:14.409Z,2.03
2018-09-03T15:32:43.226Z,2.60
2018-09-03T15:35:12.030Z,2.23
2018-09-03T15:37:40.925Z,2.37
2018-09-03T15:40:09.747Z,2.10
2018-09-03T15:42:38.589Z,2.30
2018-09-03T15:45:07.578Z,2.20
2018-09-03T15:47:36.715Z,2.90
2018-09-03T15:50:05.995Z,2.30
2018-09-03T15:52:34.810Z,2.23
2018-09-03T15:55:03.715Z,2.07
2018-09-03T15:57:32.646Z,2.27
2018-09-03T16:00:01.931Z,2.20
2018-09-03T16:02:30.793Z,2.50
2018-09-03T16:04:59.816Z,2.30
2018-09-03T16:07:28.813Z,2.67
2018-09-03T16:09:57.706Z,2.50
2018-09-03T16:12:27.663Z,2.50
2018-09-03T16:14:56.628Z,2.20
2018-09-03T16:17:25.728Z,2.40
2018-09-03T16:19:54.972Z,2.40
2018-09-03T16:22:26.984Z,2.27
2018-09-03T16:24:58.588Z,2.43
2018-09-03T16:27:37.514Z,2.20
2018-09-03T16:30:07.631Z,2.50
2018-09-03T16:32:37.342Z,2.70
2018-09-03T16:35:06.968Z,2.43
2018-09-03T16:37:37.037Z,2.87
2018-09-03T16:40:11.950Z,2.33
2018-09-03T16:42:53.655Z,2.60
2018-09-03T16:45:27.454Z,2.67
2018-09-03T17:01:25.025Z,2.50
2018-09-03T17:03:53.959Z,2.67
2018-09-03T17:06:22.915Z,2.73
2018-09-03T17:08:52.186Z,2.63
2018-09-03T17:11:21.182Z,2.60
2018-09-03T17:13:50.527Z,2.47
2018-09-03T17:16:19.711Z,3.20
2018-09-03T17:18:48.580Z,2.80
2018-09-03T17:21:17.615Z,2.90
2018-09-03T17:23:46.449Z,3.03
2018-09-03T17:26:15.536Z,3.07
2018-09-03T17:28:44.463Z,3.03
2018-09-03T17:31:13.214Z,2.70
2018-09-03T17:33:42.123Z,2.97
2018-09-03T17:36:10.986Z,2.57
2018-09-03T17:38:39.947Z,3.00
2018-09-03T17:41:08.796Z,2.73
2018-09-03T17:43:37.664Z,2.87
2018-09-03T17:46:06.553Z,3.07
2018-09-03T17:48:35.764Z,3.23
2018-09-03T17:51:04.651Z,3.00
2018-09-03T17:53:33.511Z,3.20
2018-09-03T17:56:02.347Z,3.17
2018-09-03T17:58:31.231Z,3.57
2018-09-03T18:01:00.794Z,3.10
2018-09-03T18:03:29.730Z,3.07
2018-09-03T18:05:58.607Z,3.27
2018-09-03T18:08:27.963Z,3.53
2018-09-03T18:10:56.788Z,3.30
2018-09-03T18:13:25.621Z,3.30
2018-09-03T18:15:54.483Z,3.43
2018-09-03T18:18:23.305Z,3.33
2018-09-03T18:20:52.119Z,3.10
2018-09-03T18:23:20.952Z,3.73
2018-09-03T18:25:49.829Z,3.62
2018-09-03T18:28:19.395Z,3.60
2018-09-03T18:30:48.320Z,3.80
2018-09-03T18:33:17.160Z,3.87
2018-09-03T18:35:46.043Z,4.13
2018-09-03T18:38:14.942Z,3.93
2018-09-03T18:40:43.811Z,3.90
2018-09-03T18:43:12.699Z,3.90
2018-09-03T18:45:41.537Z,3.97
2018-09-03T18:48:10.371Z,4.03
2018-09-03T18:50:40.191Z,3.83
2018-09-03T18:53:09.136Z,4.07
2018-09-03T18:55:37.955Z,4.10
2018-09-03T18:58:06.766Z,3.87
2018-09-03T19:00:35.621Z,4.30
2018-09-03T19:03:04.458Z,3.73
2018-09-03T19:05:33.320Z,4.20
2018-09-03T19:08:02.217Z,4.13
2018-09-03T19:10:31.072Z,4.33
2018-09-03T19:12:59.915Z,4.13
2018-09-03T19:15:28.783Z,4.40
2018-09-03T19:17:57.634Z,4.60
2018-09-03T19:20:26.536Z,4.00
2018-09-03T19:22:56.139Z,4.60
2018-09-03T19:25:24.955Z,5.10
2018-09-03T19:27:53.783Z,5.27
2018-09-03T19:30:22.900Z,5.23
2018-09-03T19:32:51.808Z,3.80
2018-09-03T19:35:20.644Z,4.37
2018-09-03T19:37:49.467Z,4.80
2018-09-03T19:40:18.375Z,4.13
2018-09-03T19:42:47.251Z,3.83
2018-09-03T19:45:16.144Z,4.47
2018-09-03T19:47:45.025Z,4.17
2018-09-03T19:50:13.875Z,4.93
2018-09-03T19:52:42.726Z,5.00
2018-09-03T19:55:11.601Z,5.13
2018-09-03T19:57:40.655Z,4.80
2018-09-03T20:00:09.502Z,5.00
2018-09-03T20:02:38.347Z,5.27
2018-09-03T20:05:07.203Z,4.40
2018-09-03T20:07:36.031Z,5.20
2018-09-03T20:10:04.894Z,6.00
2018-09-03T20:12:33.739Z,5.90
2018-09-03T20:15:02.633Z,5.40
2018-09-03T20:17:31.464Z,5.33
2018-09-03T20:20:00.337Z,5.80
2018-09-03T20:22:29.143Z,5.97
2018-09-03T20:24:58.004Z,6.10
2018-09-03T20:27:26.852Z,6.10
2018-09-03T20:29:55.673Z,5.90
2018-09-03T20:32:24.782Z,6.10
2018-09-03T20:34:53.599Z,6.57
2018-09-03T20:37:22.443Z,6.47
2018-09-03T20:39:51.300Z,7.00
2018-09-03T20:42:20.127Z,6.63
2018-09-03T20:44:49.057Z,6.10
2018-09-03T20:47:17.844Z,7.20
2018-09-03T20:49:46.699Z,7.03
2018-09-03T20:52:15.515Z,7.33
2018-09-03T20:54:44.449Z,7.60
2018-09-03T20:57:13.282Z,8.20
2018-09-03T20:59:42.118Z,7.93
2018-09-03T21:02:10.970Z,7.97
2018-09-03T21:04:39.814Z,7.80
2018-09-03T21:07:08.643Z,7.70
2018-09-03T21:09:38.261Z,6.07
2018-09-03T21:12:07.140Z,6.90
2018-09-03T21:14:35.988Z,7.80
2018-09-03T21:17:05.131Z,7.03
2018-09-03T21:19:33.967Z,7.10
2018-09-03T21:22:02.899Z,5.50
2018-09-03T21:24:31.659Z,5.63
2018-09-03T21:27:00.497Z,5.93
2018-09-03T21:29:29.323Z,6.83
2018-09-03T21:31:58.116Z,8.40
2018-09-03T21:34:27.220Z,8.37
2018-09-03T21:36:56.050Z,6.43
2018-09-03T21:39:24.947Z,5.90
2018-09-03T21:41:53.791Z,6.47
2018-09-03T21:44:22.759Z,5.87
2018-09-03T21:46:51.694Z,6.10
2018-09-03T21:49:20.600Z,6.33
2018-09-03T21:51:49.400Z,6.37
2018-09-03T21:54:18.243Z,6.60
2018-09-03T21:56:47.227Z,9.23
2018-09-03T21:59:16.059Z,7.57
2018-09-03T22:01:44.973Z,7.10
2018-09-03T22:04:13.833Z,7.87
2018-09-03T22:06:42.654Z,6.07
2018-09-03T22:09:11.523Z,8.17
2018-09-03T22:11:40.351Z,7.60
2018-09-03T22:14:09.207Z,6.53
2018-09-03T22:16:38.038Z,5.53
2018-09-03T22:19:06.879Z,9.23
2018-09-03T22:21:36.028Z,7.60
2018-09-03T22:24:04.876Z,7.10
2018-09-03T22:26:33.703Z,6.87
2018-09-03T22:29:02.726Z,7.67
2018-09-03T22:31:31.595Z,9.83
2018-09-03T22:34:00.454Z,7.50
2018-09-03T22:36:29.763Z,6.37
2018-09-03T22:38:58.637Z,6.80
2018-09-03T22:41:27.610Z,9.30
2018-09-03T22:43:56.465Z,11.83
2018-09-03T22:46:25.392Z,8.23
2018-09-03T22:48:54.528Z,8.70
2018-09-03T22:51:23.507Z,11.83
2018-09-03T22:53:52.392Z,9.03
2018-09-03T22:56:21.511Z,9.57
2018-09-03T22:58:50.444Z,13.23
2018-09-03T23:01:19.351Z,10.47
2018-09-03T23:03:48.179Z,12.47
2018-09-03T23:06:17.050Z,9.50
2018-09-03T23:08:45.879Z,11.60
2018-09-03T23:11:14.727Z,8.23
2018-09-03T23:13:43.539Z,8.10
2018-09-03T23:16:12.841Z,7.50
2018-09-03T23:18:41.668Z,7.10
2018-09-03T23:21:10.564Z,7.00
2018-09-03T23:23:39.410Z,7.40
2018-09-03T23:26:08.226Z,9.30
2018-09-03T23:28:37.063Z,7.73
2018-09-03T23:31:06.026Z,7.50
2018-09-03T23:33:34.867Z,7.50
2018-09-03T23:36:03.852Z,8.93
2018-09-03T23:38:32.943Z,7.97
2018-09-03T23:41:01.746Z,8.70
2018-09-03T23:43:30.619Z,8.30
2018-09-03T23:45:59.446Z,8.27
2018-09-03T23:48:28.326Z,9.37
2018-09-03T23:50:57.230Z,10.13
2018-09-03T23:53:26.094Z,13.20
2018-09-03T23:55:54.954Z,12.60
2018-09-03T23:58:23.799Z,11.10
